createdAt,value
2018-01-03T00:00:13.899Z,3.9
2018-01-03T00:01:12.898Z,3.9
2018-01-03T00:02:11.684Z,3.9
2018-01-03T00:03:10.583Z,3.9
2018-01-03T00:04:09.693Z,3.9
2018-01-03T00:06:07.682Z,4
2018-01-03T00:07:06.580Z,4.1
2018-01-03T00:08:05.783Z,4
2018-01-03T00:09:04.690Z,4.1
2018-01-03T00:10:04.174Z,4
2018-01-03T00:11:03.025Z,4.1
2018-01-03T00:12:02.033Z,4.1
2018-01-03T00:13:00.933Z,4.1
2018-01-03T00:13:59.939Z,4.1
2018-01-03T00:14:59.049Z,4.1
2018-01-03T00:15:58.054Z,4.2
2018-01-03T00:16:56.951Z,4.2
2018-01-03T00:17:56.051Z,4.2
2018-01-03T00:18:54.941Z,4.2
2018-01-03T00:19:53.835Z,4.2
2018-01-03T00:21:52.324Z,4.2
2018-01-03T00:22:51.324Z,4.2
2018-01-03T00:24:49.449Z,4.2
2018-01-03T00:25:47.835Z,4.2
2018-01-03T00:26:47.547Z,4.3
2018-01-03T00:27:46.157Z,4.3
2018-01-03T00:28:45.163Z,4.3
2018-01-03T00:29:44.267Z,4.3
2018-01-03T00:30:43.272Z,4.3
2018-01-03T00:31:42.287Z,4.4
2018-01-03T00:32:41.297Z,4.4
2018-01-03T00:33:40.617Z,4.4
2018-01-03T00:34:39.126Z,4.4
2018-01-03T00:35:09.339Z,4.4
2018-01-03T00:35:39.656Z,4.4
2018-01-03T00:36:10.187Z,4.4
2018-01-03T00:37:36.274Z,4.4
2018-01-03T00:38:35.489Z,4.5
2018-01-03T00:39:34.746Z,4.5
2018-01-03T00:40:33.456Z,4.5
2018-01-03T00:41:32.457Z,4.5
2018-01-03T00:42:31.604Z,4.5
2018-01-03T00:43:30.613Z,4.5
2018-01-03T00:44:29.720Z,4.6
2018-01-03T00:45:28.619Z,4.6
2018-01-03T00:46:27.516Z,4.5
2018-01-03T00:47:26.513Z,4.6
2018-01-03T00:48:25.617Z,4.6
2018-01-03T00:49:24.666Z,4.6
2018-01-03T00:51:22.644Z,4.6
2018-01-03T00:52:21.745Z,4.6
2018-01-03T00:53:20.861Z,4.6
2018-01-03T00:54:19.977Z,4.6
2018-01-03T00:56:17.846Z,4.6
2018-01-03T00:57:16.952Z,4.6
2018-01-03T00:58:15.846Z,4.6
2018-01-03T00:59:14.950Z,4.6
2018-01-03T01:00:13.953Z,4.7
2018-01-03T01:00:44.161Z,4.7
2018-01-03T01:01:14.373Z,4.6
2018-01-03T01:02:11.975Z,4.7
2018-01-03T01:03:10.869Z,4.7
2018-01-03T01:04:09.994Z,4.7
2018-01-03T01:05:08.891Z,4.7
2018-01-03T01:06:07.798Z,4.7
2018-01-03T01:07:06.701Z,4.7
2018-01-03T01:08:06.213Z,4.7
2018-01-03T01:09:05.116Z,4.7
2018-01-03T01:10:04.549Z,4.7
2018-01-03T01:11:03.268Z,4.7
2018-01-03T01:11:33.485Z,4.7
2018-01-03T01:12:04.409Z,4.8
2018-01-03T01:13:01.504Z,4.8
2018-01-03T01:14:00.011Z,4.8
2018-01-03T01:14:59.116Z,4.8
2018-01-03T01:15:58.112Z,4.8
2018-01-03T01:16:57.156Z,4.8
2018-01-03T01:17:56.555Z,4.8
2018-01-03T01:18:55.337Z,4.8
2018-01-03T01:20:53.324Z,4.8
2018-01-03T01:21:52.222Z,4.8
2018-01-03T01:22:51.219Z,4.8
2018-01-03T01:23:50.509Z,4.8
2018-01-03T01:24:49.716Z,4.9
2018-01-03T01:25:48.427Z,4.9
2018-01-03T01:26:47.534Z,4.9
2018-01-03T01:27:46.534Z,4.9
2018-01-03T01:28:45.637Z,4.9
2018-01-03T01:29:44.851Z,4.9
2018-01-03T01:30:43.563Z,4.9
2018-01-03T01:31:42.563Z,5
2018-01-03T01:32:41.569Z,5.1
2018-01-03T01:33:40.570Z,5.1
2018-01-03T01:34:39.473Z,5.1
2018-01-03T01:35:38.575Z,5.1
2018-01-03T01:36:38.078Z,5.1
2018-01-03T01:37:36.891Z,5.2
2018-01-03T01:38:36.002Z,5.2
2018-01-03T01:39:34.899Z,5.2
2018-01-03T01:40:34.006Z,5.3
2018-01-03T01:41:33.218Z,5.3
2018-01-03T01:43:30.998Z,5.3
2018-01-03T01:44:29.996Z,5.3
2018-01-03T01:45:29.103Z,5.4
2018-01-03T01:46:28.204Z,5.4
2018-01-03T01:47:27.099Z,5.4
2018-01-03T01:48:26.202Z,5.4
2018-01-03T01:49:25.416Z,5.4
2018-01-03T01:50:24.367Z,5.4
2018-01-03T01:51:23.481Z,5.4
2018-01-03T01:51:53.693Z,5.4
2018-01-03T01:52:24.111Z,5.4
2018-01-03T01:52:54.315Z,5.4
2018-01-03T01:54:20.598Z,5.4
2018-01-03T01:55:19.815Z,5.3
2018-01-03T01:56:18.317Z,5.3
2018-01-03T01:57:17.586Z,5.3
2018-01-03T01:58:16.357Z,5.3
2018-01-03T01:59:15.360Z,5.3
2018-01-03T02:00:14.687Z,5.3
2018-01-03T02:01:13.912Z,5.3
2018-01-03T02:02:12.831Z,5.3
2018-01-03T02:03:11.944Z,5.4
2018-01-03T02:05:09.833Z,5.4
2018-01-03T02:07:07.930Z,5.4
2018-01-03T02:08:07.044Z,5.3
2018-01-03T02:09:06.337Z,5.4
2018-01-03T02:10:04.944Z,5.4
2018-01-03T02:11:04.373Z,5.4
2018-01-03T02:12:02.984Z,5.4
2018-01-03T02:13:02.304Z,5.4
2018-01-03T02:14:00.922Z,5.4
2018-01-03T02:15:00.677Z,5.4
2018-01-03T02:15:59.392Z,5.4
2018-01-03T02:16:58.294Z,5.4
2018-01-03T02:17:57.188Z,5.4
2018-01-03T02:18:56.188Z,5.4
2018-01-03T02:19:55.190Z,5.4
2018-01-03T02:20:53.979Z,5.3
2018-01-03T02:21:53.589Z,5.4
2018-01-03T02:23:51.364Z,5.4
2018-01-03T02:24:50.263Z,5.4
2018-01-03T02:25:49.765Z,5.4
2018-01-03T02:26:48.767Z,5.4
2018-01-03T02:27:47.877Z,5.4
2018-01-03T02:28:46.591Z,5.4
2018-01-03T02:29:45.591Z,5.4
2018-01-03T02:30:44.590Z,5.4
2018-01-03T02:31:43.489Z,5.4
2018-01-03T02:32:13.808Z,5.4
2018-01-03T02:32:44.228Z,5.4
2018-01-03T02:33:14.634Z,5.4
2018-01-03T02:34:40.916Z,5.4
2018-01-03T02:35:40.026Z,5.4
2018-01-03T02:36:39.249Z,5.4
2018-01-03T02:37:38.245Z,5.4
2018-01-03T02:38:37.350Z,5.4
2018-01-03T02:39:35.750Z,5.4
2018-01-03T02:40:35.372Z,5.4
2018-01-03T02:41:34.490Z,5.4
2018-01-03T02:42:33.229Z,5.4
2018-01-03T02:43:32.562Z,5.4
2018-01-03T02:44:31.676Z,5.4
2018-01-03T02:45:30.288Z,5.4
2018-01-03T02:46:29.510Z,5.4
2018-01-03T02:47:28.520Z,5.4
2018-01-03T02:49:26.732Z,5.4
2018-01-03T02:50:25.954Z,5.4
2018-01-03T02:51:24.451Z,5.4
2018-01-03T02:52:23.556Z,5.4
2018-01-03T02:53:22.558Z,5.4
2018-01-03T02:54:21.565Z,5.4
2018-01-03T02:55:20.775Z,5.4
2018-01-03T02:56:19.885Z,5.4
2018-01-03T02:57:19.101Z,5.4
2018-01-03T02:58:18.115Z,5.4
2018-01-03T02:59:17.124Z,5.4
2018-01-03T03:00:16.123Z,5.4
2018-01-03T03:01:15.124Z,5.4
2018-01-03T03:02:13.919Z,5.4
2018-01-03T03:03:13.032Z,5.4
2018-01-03T03:04:12.190Z,5.4
2018-01-03T03:05:11.298Z,5.4
2018-01-03T03:06:10.506Z,5.5
2018-01-03T03:07:09.005Z,5.5
2018-01-03T03:08:08.223Z,5.5
2018-01-03T03:09:07.121Z,5.5
2018-01-03T03:10:06.119Z,5.5
2018-01-03T03:11:05.733Z,5.5
2018-01-03T03:12:04.849Z,5.5
2018-01-03T03:12:35.279Z,5.5
2018-01-03T03:13:05.596Z,5.5
2018-01-03T03:14:02.585Z,5.5
2018-01-03T03:15:01.806Z,5.5
2018-01-03T03:16:00.927Z,5.5
2018-01-03T03:16:59.533Z,5.5
2018-01-03T03:17:58.334Z,5.5
2018-01-03T03:18:57.842Z,5.5
2018-01-03T03:19:56.855Z,5.5
2018-01-03T03:20:55.748Z,5.5
2018-01-03T03:21:54.861Z,5.5
2018-01-03T03:22:53.754Z,5.5
2018-01-03T03:23:53.047Z,5.6
2018-01-03T03:24:52.155Z,5.6
2018-01-03T03:25:51.363Z,5.6
2018-01-03T03:26:50.463Z,5.5
2018-01-03T03:27:49.066Z,5.5
2018-01-03T03:28:19.492Z,5.5
2018-01-03T03:28:49.600Z,5.5
2018-01-03T03:29:46.879Z,5.5
2018-01-03T03:30:46.505Z,5.5
2018-01-03T03:31:45.399Z,5.4
2018-01-03T03:32:44.504Z,5.4
2018-01-03T03:33:43.502Z,5.4
2018-01-03T03:34:42.499Z,5.4
2018-01-03T03:35:41.714Z,5.3
2018-01-03T03:36:40.714Z,5.3
2018-01-03T03:37:39.926Z,5.2
2018-01-03T03:38:38.532Z,5.1
2018-01-03T03:39:37.535Z,5.1
2018-01-03T03:40:36.743Z,5.1
2018-01-03T03:41:35.954Z,5
2018-01-03T03:42:35.059Z,5
2018-01-03T03:43:33.644Z,5
2018-01-03T03:44:33.135Z,5
2018-01-03T03:45:32.019Z,4.9
2018-01-03T03:46:31.109Z,4.9
2018-01-03T03:47:29.992Z,4.9
2018-01-03T03:48:28.883Z,4.9
2018-01-03T03:49:27.874Z,4.9
2018-01-03T03:50:27.575Z,4.9
2018-01-03T03:51:26.115Z,4.9
2018-01-03T03:52:25.107Z,4.8
2018-01-03T03:53:23.995Z,4.8
2018-01-03T03:54:22.983Z,4.8
2018-01-03T03:55:22.693Z,4.8
2018-01-03T03:56:21.083Z,4.8
2018-01-03T03:56:51.600Z,4.8
2018-01-03T03:57:21.799Z,4.8
2018-01-03T03:57:52.217Z,4.8
2018-01-03T03:58:22.528Z,4.8
2018-01-03T03:58:52.732Z,4.8
2018-01-03T04:00:17.179Z,4.7
2018-01-03T04:01:16.780Z,4.7
2018-01-03T04:03:14.875Z,4.7
2018-01-03T04:04:13.869Z,4.7
2018-01-03T04:05:12.966Z,4.7
2018-01-03T04:06:11.850Z,4.7
2018-01-03T04:06:42.057Z,4.7
2018-01-03T04:07:12.356Z,4.7
2018-01-03T04:07:43.157Z,4.7
2018-01-03T04:08:13.567Z,4.7
2018-01-03T04:08:43.978Z,4.7
2018-01-03T04:09:14.383Z,4.7
2018-01-03T04:09:44.799Z,4.7
2018-01-03T04:10:15.312Z,4.7
2018-01-03T04:10:45.626Z,4.7
2018-01-03T04:12:06.061Z,4.6
2018-01-03T04:13:05.261Z,4.6
2018-01-03T04:14:04.309Z,4.6
2018-01-03T04:15:03.015Z,4.6
2018-01-03T04:16:02.005Z,4.6
2018-01-03T04:17:01.204Z,4.6
2018-01-03T04:18:00.192Z,4.6
2018-01-03T04:18:59.297Z,4.6
2018-01-03T04:19:58.392Z,4.6
2018-01-03T04:20:57.377Z,4.6
2018-01-03T04:21:56.481Z,4.6
2018-01-03T04:22:55.472Z,4.6
2018-01-03T04:23:54.468Z,4.6
2018-01-03T04:24:53.674Z,4.6
2018-01-03T04:25:52.268Z,4.6
2018-01-03T04:26:51.866Z,4.6
2018-01-03T04:27:50.452Z,4.6
2018-01-03T04:28:49.339Z,4.6
2018-01-03T04:29:48.937Z,4.5
2018-01-03T04:30:47.320Z,4.5
2018-01-03T04:31:47.025Z,4.5
2018-01-03T04:32:45.515Z,4.6
2018-01-03T04:33:45.219Z,4.5
2018-01-03T04:35:42.795Z,4.5
2018-01-03T04:36:42.097Z,4.5
2018-01-03T04:37:40.994Z,4.5
2018-01-03T04:38:39.882Z,4.5
2018-01-03T04:39:38.985Z,4.5
2018-01-03T04:40:37.978Z,4.6
2018-01-03T04:41:37.024Z,4.5
2018-01-03T04:42:36.125Z,4.5
2018-01-03T04:43:35.115Z,4.5
2018-01-03T04:44:33.994Z,4.5
2018-01-03T04:45:32.985Z,4.5
2018-01-03T04:46:32.089Z,4.6
2018-01-03T04:47:30.864Z,4.6
2018-01-03T04:48:01.780Z,4.6
2018-01-03T04:48:32.084Z,4.6
2018-01-03T04:49:02.401Z,4.6
2018-01-03T04:49:32.710Z,4.6
2018-01-03T04:50:03.125Z,4.6
2018-01-03T04:50:33.538Z,4.6
2018-01-03T04:51:04.050Z,4.6
2018-01-03T04:52:26.296Z,4.6
2018-01-03T04:53:25.600Z,4.6
2018-01-03T04:54:24.488Z,4.6
2018-01-03T04:55:23.796Z,4.6
2018-01-03T04:56:22.794Z,4.6
2018-01-03T04:57:21.332Z,4.6
2018-01-03T04:58:20.821Z,4.6
2018-01-03T04:59:20.034Z,4.6
2018-01-03T05:00:18.643Z,4.6
2018-01-03T05:00:48.946Z,4.6
2018-01-03T05:01:19.146Z,4.6
2018-01-03T05:02:16.727Z,4.6
2018-01-03T05:04:14.710Z,4.6
2018-01-03T05:05:13.703Z,4.6
2018-01-03T05:06:12.901Z,4.6
2018-01-03T05:07:11.888Z,4.6
2018-01-03T05:08:11.083Z,4.7
2018-01-03T05:09:09.966Z,4.6
2018-01-03T05:10:08.954Z,4.6
2018-01-03T05:11:08.042Z,4.6
2018-01-03T05:12:07.036Z,4.7
2018-01-03T05:13:06.131Z,4.7
2018-01-03T05:14:05.229Z,4.7
2018-01-03T05:15:04.427Z,4.7
2018-01-03T05:16:03.120Z,4.7
2018-01-03T05:17:02.001Z,4.7
2018-01-03T05:18:01.092Z,4.7
2018-01-03T05:18:59.973Z,4.7
2018-01-03T05:19:58.962Z,4.7
2018-01-03T05:20:58.451Z,4.7
2018-01-03T05:21:57.653Z,4.7
2018-01-03T05:22:56.137Z,4.7
2018-01-03T05:23:55.527Z,4.7
2018-01-03T05:24:54.731Z,4.8
2018-01-03T05:25:53.112Z,4.8
2018-01-03T05:26:52.707Z,4.8
2018-01-03T05:27:51.908Z,4.8
2018-01-03T05:28:50.395Z,4.8
2018-01-03T05:30:48.876Z,4.8
2018-01-03T05:31:47.570Z,4.8
2018-01-03T05:32:46.766Z,4.8
2018-01-03T05:33:45.753Z,4.8
2018-01-03T05:34:45.165Z,4.8
2018-01-03T05:35:43.859Z,4.8
2018-01-03T05:36:42.632Z,4.8
2018-01-03T05:37:41.514Z,4.8
2018-01-03T05:38:41.108Z,4.8
2018-01-03T05:39:39.812Z,4.8
2018-01-03T05:40:38.910Z,4.8
2018-01-03T05:41:37.900Z,4.8
2018-01-03T05:42:37.105Z,4.8
2018-01-03T05:43:36.101Z,4.8
2018-01-03T05:44:35.095Z,4.8
2018-01-03T05:45:05.720Z,4.8
2018-01-03T05:46:33.211Z,4.8
2018-01-03T05:47:32.203Z,4.8
2018-01-03T05:48:30.985Z,4.8
2018-01-03T05:50:29.471Z,4.9
2018-01-03T05:51:28.568Z,4.9
2018-01-03T05:52:27.462Z,4.9
2018-01-03T05:53:26.445Z,4.9
2018-01-03T05:54:25.441Z,4.9
2018-01-03T05:55:24.433Z,4.9
2018-01-03T05:56:23.315Z,4.9
2018-01-03T05:57:22.308Z,5
2018-01-03T05:58:21.402Z,5
2018-01-03T06:00:19.773Z,5
2018-01-03T06:01:18.868Z,5
2018-01-03T06:02:17.564Z,5.1
2018-01-03T06:03:16.564Z,5.1
2018-01-03T06:04:15.449Z,5.1
2018-01-03T06:05:15.003Z,5
2018-01-03T06:06:13.605Z,5
2018-01-03T06:07:13.312Z,5
2018-01-03T06:08:12.112Z,5
2018-01-03T06:09:10.608Z,5
2018-01-03T06:10:10.197Z,5
2018-01-03T06:11:09.411Z,5
2018-01-03T06:12:07.897Z,5
2018-01-03T06:13:06.677Z,5
2018-01-03T06:14:06.494Z,5
2018-01-03T06:15:04.878Z,5
2018-01-03T06:16:04.265Z,5
2018-01-03T06:17:03.256Z,5
2018-01-03T06:18:02.352Z,5
2018-01-03T06:20:00.223Z,5
2018-01-03T06:21:58.699Z,5
2018-01-03T06:22:57.187Z,5
2018-01-03T06:23:56.178Z,5
2018-01-03T06:24:26.584Z,5
2018-01-03T06:24:56.890Z,5
2018-01-03T06:25:27.301Z,5
2018-01-03T06:25:57.818Z,5
2018-01-03T06:26:28.016Z,5
2018-01-03T06:28:51.655Z,5
2018-01-03T06:29:50.658Z,5
2018-01-03T06:30:49.544Z,5
2018-01-03T06:31:48.644Z,5
2018-01-03T06:32:47.737Z,5
2018-01-03T06:33:46.831Z,5
2018-01-03T06:34:45.819Z,5
2018-01-03T06:35:44.910Z,5
2018-01-03T06:36:43.903Z,5
2018-01-03T06:37:42.891Z,5
2018-01-03T06:38:42.095Z,5
2018-01-03T06:40:39.969Z,5
2018-01-03T06:41:39.067Z,5
2018-01-03T06:42:38.160Z,5
2018-01-03T06:43:37.256Z,5.1
2018-01-03T06:44:36.461Z,5.1
2018-01-03T06:45:34.939Z,5.1
2018-01-03T06:46:33.934Z,5.1
2018-01-03T06:47:33.326Z,5.1
2018-01-03T06:48:32.314Z,5.1
2018-01-03T06:49:31.404Z,5.1
2018-01-03T06:50:30.500Z,5.1
2018-01-03T06:51:29.604Z,5.1
2018-01-03T06:52:28.696Z,5.1
2018-01-03T06:53:27.901Z,5.1
2018-01-03T06:54:26.599Z,5.1
2018-01-03T06:55:25.596Z,5.1
2018-01-03T06:56:24.692Z,5.1
2018-01-03T06:57:23.996Z,5.1
2018-01-03T06:58:22.687Z,5.1
2018-01-03T06:59:21.824Z,5.1
2018-01-03T07:00:20.922Z,5.1
2018-01-03T07:01:20.132Z,5.1
2018-01-03T07:02:19.021Z,5.2
2018-01-03T07:03:17.806Z,5.2
2018-01-03T07:04:17.109Z,5.3
2018-01-03T07:05:16.207Z,5.3
2018-01-03T07:05:46.612Z,5.3
2018-01-03T07:06:17.018Z,5.3
2018-01-03T07:06:47.534Z,5.3
2018-01-03T07:07:18.234Z,5.3
2018-01-03T07:07:48.348Z,5.3
2018-01-03T07:09:12.104Z,5.3
2018-01-03T07:10:11.297Z,5.3
2018-01-03T07:11:10.606Z,5.3
2018-01-03T07:12:09.306Z,5.4
2018-01-03T07:13:08.191Z,5.4
2018-01-03T07:14:07.180Z,5.4
2018-01-03T07:15:06.173Z,5.4
2018-01-03T07:15:36.476Z,5.4
2018-01-03T07:17:04.558Z,5.4
2018-01-03T07:18:03.861Z,5.4
2018-01-03T07:19:02.358Z,5.4
2018-01-03T07:20:01.464Z,5.4
2018-01-03T07:21:00.671Z,5.4
2018-01-03T07:21:59.760Z,5.4
2018-01-03T07:22:58.747Z,5.5
2018-01-03T07:24:56.723Z,5.5
2018-01-03T07:25:55.926Z,5.5
2018-01-03T07:26:54.919Z,5.5
2018-01-03T07:27:54.007Z,5.5
2018-01-03T07:28:52.996Z,5.5
2018-01-03T07:29:51.987Z,5.6
2018-01-03T07:30:50.871Z,5.5
2018-01-03T07:31:49.863Z,5.5
2018-01-03T07:32:49.361Z,5.6
2018-01-03T07:33:48.348Z,5.6
2018-01-03T07:34:47.552Z,5.6
2018-01-03T07:35:46.030Z,5.6
2018-01-03T07:36:45.736Z,5.6
2018-01-03T07:37:44.538Z,5.6
2018-01-03T07:38:43.318Z,5.6
2018-01-03T07:39:42.516Z,5.6
2018-01-03T07:40:41.507Z,5.6
2018-01-03T07:41:40.812Z,5.6
2018-01-03T07:42:39.801Z,5.6
2018-01-03T07:43:38.582Z,5.6
2018-01-03T07:44:37.675Z,5.6
2018-01-03T07:45:36.665Z,5.7
2018-01-03T07:46:35.761Z,5.7
2018-01-03T07:47:34.649Z,5.7
2018-01-03T07:48:33.746Z,5.7
2018-01-03T07:49:32.959Z,5.7
2018-01-03T07:50:31.950Z,5.7
2018-01-03T07:51:31.564Z,5.7
2018-01-03T07:54:28.034Z,5.8
2018-01-03T07:55:27.134Z,5.8
2018-01-03T07:56:25.909Z,5.8
2018-01-03T07:57:25.326Z,5.8
2018-01-03T07:58:24.542Z,5.9
2018-01-03T07:59:23.535Z,5.9
2018-01-03T08:01:21.405Z,5.9
2018-01-03T08:02:20.504Z,6
2018-01-03T08:03:19.283Z,6
2018-01-03T08:04:18.593Z,6
2018-01-03T08:05:17.486Z,6
2018-01-03T08:06:16.901Z,6
2018-01-03T08:07:15.897Z,6
2018-01-03T08:08:15.000Z,6
2018-01-03T08:09:14.100Z,6
2018-01-03T08:10:12.477Z,6
2018-01-03T08:11:11.869Z,6
2018-01-03T08:12:10.964Z,6.1
2018-01-03T08:13:09.959Z,6.1
2018-01-03T08:14:08.946Z,6.1
2018-01-03T08:15:08.043Z,6.1
2018-01-03T08:16:07.039Z,6.1
2018-01-03T08:17:06.149Z,6.1
2018-01-03T08:18:05.241Z,6.1
2018-01-03T08:19:04.017Z,6.1
2018-01-03T08:20:03.119Z,6.2
2018-01-03T08:21:02.672Z,6.2
2018-01-03T08:22:01.168Z,6.2
2018-01-03T08:23:00.657Z,6.3
2018-01-03T08:23:59.541Z,6.3
2018-01-03T08:24:29.848Z,6.3
2018-01-03T08:25:00.300Z,6.3
2018-01-03T08:25:57.779Z,6.4
2018-01-03T08:26:56.973Z,6.4
2018-01-03T08:27:56.179Z,6.4
2018-01-03T08:28:54.765Z,6.4
2018-01-03T08:29:53.645Z,6.5
2018-01-03T08:30:52.859Z,6.5
2018-01-03T08:31:52.062Z,6.6
2018-01-03T08:32:51.268Z,6.6
2018-01-03T08:33:50.363Z,6.7
2018-01-03T08:34:20.668Z,6.7
2018-01-03T08:34:51.086Z,6.7
2018-01-03T08:35:21.498Z,6.7
2018-01-03T08:35:51.907Z,6.7
2018-01-03T08:36:47.167Z,6.7
2018-01-03T08:37:46.362Z,6.7
2018-01-03T08:38:45.460Z,6.7
2018-01-03T08:39:44.449Z,6.7
2018-01-03T08:40:43.647Z,6.7
2018-01-03T08:41:42.635Z,6.7
2018-01-03T08:42:41.624Z,6.7
2018-01-03T08:43:41.031Z,6.7
2018-01-03T08:44:39.627Z,6.8
2018-01-03T08:45:38.505Z,6.7
2018-01-03T08:46:38.255Z,6.8
2018-01-03T08:47:36.956Z,6.8
2018-01-03T08:49:34.931Z,6.9
2018-01-03T08:50:33.817Z,6.9
2018-01-03T08:51:32.701Z,6.9
2018-01-03T08:52:32.301Z,7
2018-01-03T08:53:31.192Z,7
2018-01-03T08:54:30.502Z,7
2018-01-03T08:55:29.380Z,7.1
2018-01-03T08:56:28.363Z,7.1
2018-01-03T08:57:27.469Z,7.1
2018-01-03T08:58:26.448Z,7.1
2018-01-03T08:59:25.814Z,7.2
2018-01-03T09:00:24.600Z,7.2
2018-01-03T09:01:23.590Z,7.2
2018-01-03T09:02:22.791Z,7.2
2018-01-03T09:03:21.884Z,7.2
2018-01-03T09:04:20.872Z,7.3
2018-01-03T09:05:20.075Z,7.3
2018-01-03T09:06:19.065Z,7.3
2018-01-03T09:07:18.371Z,7.3
2018-01-03T09:08:16.961Z,7.3
2018-01-03T09:09:16.164Z,7.3
2018-01-03T09:10:15.052Z,7.3
2018-01-03T09:11:14.150Z,7.4
2018-01-03T09:12:13.247Z,7.4
2018-01-03T09:13:12.125Z,7.4
2018-01-03T09:14:11.515Z,7.4
2018-01-03T09:14:41.718Z,7.4
2018-01-03T09:15:12.229Z,7.4
2018-01-03T09:15:42.432Z,7.4
2018-01-03T09:17:08.597Z,7.5
2018-01-03T09:18:07.592Z,7.5
2018-01-03T09:19:06.587Z,7.5
2018-01-03T09:20:05.980Z,7.6
2018-01-03T09:21:05.074Z,7.6
2018-01-03T09:22:04.064Z,7.6
2018-01-03T09:23:03.168Z,7.6
2018-01-03T09:24:02.318Z,7.6
2018-01-03T09:25:01.616Z,7.6
2018-01-03T09:26:00.325Z,7.6
2018-01-03T09:26:59.528Z,7.6
2018-01-03T09:27:58.833Z,7.7
2018-01-03T09:28:57.213Z,7.7
2018-01-03T09:29:57.035Z,7.7
2018-01-03T09:31:54.307Z,7.8
2018-01-03T09:32:53.797Z,7.8
2018-01-03T09:33:53.108Z,7.8
2018-01-03T09:34:52.321Z,7.8
2018-01-03T09:35:51.019Z,7.9
2018-01-03T09:36:50.264Z,7.9
2018-01-03T09:37:49.149Z,8
2018-01-03T09:38:48.037Z,8
2018-01-03T09:39:47.150Z,7.9
2018-01-03T09:40:46.031Z,7.9
2018-01-03T09:41:45.522Z,8
2018-01-03T09:42:44.549Z,8
2018-01-03T09:43:43.642Z,8.1
2018-01-03T09:44:14.053Z,8.1
2018-01-03T09:44:44.463Z,8.1
2018-01-03T09:45:41.836Z,8.2
2018-01-03T09:46:40.720Z,8.2
2018-01-03T09:47:39.612Z,8.3
2018-01-03T09:48:39.314Z,8.3
2018-01-03T09:49:37.802Z,8.3
2018-01-03T09:51:36.396Z,8.4
2018-01-03T09:52:35.598Z,8.4
2018-01-03T09:53:34.588Z,8.5
2018-01-03T09:55:32.782Z,8.4
2018-01-03T09:56:03.192Z,8.4
2018-01-03T09:56:33.290Z,8.5
2018-01-03T09:57:30.987Z,8.5
2018-01-03T09:58:29.987Z,8.5
2018-01-03T09:59:28.985Z,8.5
2018-01-03T10:00:28.185Z,8.5
2018-01-03T10:02:26.061Z,8.6
2018-01-03T10:03:25.146Z,8.7
2018-01-03T10:04:24.242Z,8.7
2018-01-03T10:06:22.715Z,8.7
2018-01-03T10:07:21.195Z,8.7
2018-01-03T10:08:20.793Z,8.7
2018-01-03T10:09:19.883Z,8.7
2018-01-03T10:10:19.008Z,8.7
2018-01-03T10:10:49.318Z,8.7
2018-01-03T10:11:20.235Z,8.8
2018-01-03T10:12:16.815Z,8.8
2018-01-03T10:13:16.019Z,8.9
2018-01-03T10:14:15.014Z,8.9
2018-01-03T10:15:14.002Z,8.9
2018-01-03T10:16:13.213Z,8.9
2018-01-03T10:17:12.315Z,9
2018-01-03T10:18:11.197Z,9
2018-01-03T10:19:10.291Z,9.1
2018-01-03T10:20:09.904Z,9.1
2018-01-03T10:21:08.494Z,9.1
2018-01-03T10:22:07.889Z,9.1
2018-01-03T10:23:06.881Z,9.1
2018-01-03T10:24:05.874Z,9.1
2018-01-03T10:25:04.967Z,9.1
2018-01-03T10:26:04.172Z,9.1
2018-01-03T10:27:03.391Z,9.2
2018-01-03T10:28:02.521Z,9.2
2018-01-03T10:29:01.629Z,9.2
2018-01-03T10:30:00.843Z,9.2
2018-01-03T10:30:59.624Z,9.2
2018-01-03T10:31:58.622Z,9.3
2018-01-03T10:32:57.820Z,9.3
2018-01-03T10:33:56.924Z,9.4
2018-01-03T10:34:55.919Z,9.4
2018-01-03T10:35:55.120Z,9.5
2018-01-03T10:36:54.115Z,9.5
2018-01-03T10:37:52.999Z,9.5
2018-01-03T10:38:52.488Z,9.5
2018-01-03T10:39:51.588Z,9.5
2018-01-03T10:40:50.679Z,9.6
2018-01-03T10:41:20.984Z,9.6
2018-01-03T10:41:51.498Z,9.6
2018-01-03T10:42:48.472Z,9.6
2018-01-03T10:43:47.861Z,9.6
2018-01-03T10:44:47.058Z,9.6
2018-01-03T10:45:46.056Z,9.5
2018-01-03T10:46:45.266Z,9.5
2018-01-03T10:47:44.466Z,9.5
2018-01-03T10:48:43.461Z,9.5
2018-01-03T10:49:42.671Z,9.4
2018-01-03T10:50:13.196Z,9.4
2018-01-03T10:50:43.394Z,9.3
2018-01-03T10:51:14.098Z,9.3
2018-01-03T10:51:44.609Z,9.2
2018-01-03T10:52:15.002Z,9.2
2018-01-03T10:52:45.412Z,9.1
2018-01-03T10:53:15.614Z,9.1
2018-01-03T10:54:37.855Z,8.9
2018-01-03T10:55:36.840Z,8.9
2018-01-03T10:56:36.337Z,8.8
2018-01-03T10:57:35.225Z,8.8
2018-01-03T10:58:34.321Z,8.7
2018-01-03T10:59:33.412Z,8.7
2018-01-03T11:00:32.512Z,8.7
2018-01-03T11:01:31.713Z,8.7
2018-01-03T11:02:30.804Z,8.6
2018-01-03T11:03:01.427Z,8.6
2018-01-03T11:03:31.227Z,8.6
2018-01-03T11:04:01.740Z,8.6
2018-01-03T11:05:27.906Z,8.6
2018-01-03T11:06:26.790Z,8.5
2018-01-03T11:07:26.285Z,8.5
2018-01-03T11:08:25.381Z,8.5
2018-01-03T11:10:23.964Z,8.4
2018-01-03T11:11:22.656Z,8.4
2018-01-03T11:12:21.965Z,8.3
2018-01-03T11:13:20.671Z,8.2
2018-01-03T11:14:19.668Z,8.1
2018-01-03T11:15:19.269Z,7.9
2018-01-03T11:16:18.369Z,7.9
2018-01-03T11:17:17.360Z,7.8
2018-01-03T11:18:16.464Z,7.9
2018-01-03T11:19:15.458Z,7.9
2018-01-03T11:20:14.656Z,7.8
2018-01-03T11:21:13.746Z,7.7
2018-01-03T11:22:13.058Z,7.7
2018-01-03T11:23:11.440Z,7.6
2018-01-03T11:24:11.043Z,7.6
2018-01-03T11:25:09.933Z,7.5
2018-01-03T11:26:08.812Z,7.4
2018-01-03T11:27:08.017Z,7.3
2018-01-03T11:28:07.011Z,7
2018-01-03T11:29:06.614Z,6.7
2018-01-03T11:30:05.602Z,6.2
2018-01-03T11:31:04.700Z,6
2018-01-03T11:31:35.006Z,6
2018-01-03T11:32:05.416Z,5.8
2018-01-03T11:32:35.610Z,5.8
2018-01-03T11:33:06.521Z,5.6
2018-01-03T11:33:36.929Z,5.6
2018-01-03T11:34:07.570Z,5.5
2018-01-03T11:34:37.873Z,5.5
2018-01-03T11:36:00.115Z,5.3
2018-01-03T11:36:58.778Z,5.3
2018-01-03T11:37:57.875Z,5.2
2018-01-03T11:39:56.143Z,5.3
2018-01-03T11:40:55.236Z,5.4
2018-01-03T11:41:54.545Z,5.5
2018-01-03T11:42:53.634Z,5.6
2018-01-03T11:43:52.839Z,5.6
2018-01-03T11:44:23.144Z,5.6
2018-01-03T11:45:50.640Z,5.6
2018-01-03T11:46:49.524Z,5.7
2018-01-03T11:47:48.626Z,5.7
2018-01-03T11:48:47.732Z,5.7
2018-01-03T11:50:45.709Z,5.8
2018-01-03T11:51:44.696Z,5.8
2018-01-03T11:52:43.793Z,5.8
2018-01-03T11:53:42.781Z,5.9
2018-01-03T11:54:42.483Z,6
2018-01-03T11:55:40.873Z,6
2018-01-03T11:56:40.479Z,6
2018-01-03T11:58:38.460Z,6.1
2018-01-03T11:59:37.551Z,6.1
2018-01-03T12:00:36.560Z,6.1
2018-01-03T12:01:35.552Z,6.1
2018-01-03T12:02:34.749Z,6.1
2018-01-03T12:03:33.627Z,6.1
2018-01-03T12:04:32.719Z,6.1
2018-01-03T12:05:31.820Z,6.1
2018-01-03T12:06:31.028Z,6.1
2018-01-03T12:07:30.055Z,6.1
2018-01-03T12:08:29.262Z,6.1
2018-01-03T12:09:27.978Z,6.1
2018-01-03T12:10:27.289Z,6.1
2018-01-03T12:12:25.477Z,6.1
2018-01-03T12:13:24.475Z,6.1
2018-01-03T12:14:22.963Z,6.1
2018-01-03T12:15:22.353Z,6.1
2018-01-03T12:16:21.554Z,6.1
2018-01-03T12:17:20.440Z,6.2
2018-01-03T12:18:19.654Z,6.2
2018-01-03T12:19:18.755Z,6.2
2018-01-03T12:21:16.527Z,6.1
2018-01-03T12:22:15.726Z,6.1
2018-01-03T12:23:14.928Z,6.1
2018-01-03T12:24:14.130Z,6.1
2018-01-03T12:25:13.229Z,6.2
2018-01-03T12:25:43.638Z,6.2
2018-01-03T12:26:13.939Z,6.2
2018-01-03T12:27:10.815Z,6.3
2018-01-03T12:28:09.912Z,6.3
2018-01-03T12:29:09.236Z,6.3
2018-01-03T12:29:39.143Z,6.3
2018-01-03T12:30:09.448Z,6.3
2018-01-03T12:31:06.821Z,6.3
2018-01-03T12:32:06.532Z,6.3
2018-01-03T12:33:05.332Z,6.3
2018-01-03T12:34:04.331Z,6.3
2018-01-03T12:35:03.211Z,6.3
2018-01-03T12:37:01.985Z,6.2
2018-01-03T12:38:00.589Z,6.3
2018-01-03T12:40:57.631Z,6.3
2018-01-03T12:41:57.128Z,6.3
2018-01-03T12:42:56.125Z,6.3
2018-01-03T12:43:55.009Z,6.3
2018-01-03T12:44:54.103Z,6.3
2018-01-03T12:45:52.994Z,6.3
2018-01-03T12:46:52.090Z,6.3
2018-01-03T12:47:51.185Z,6.3
2018-01-03T12:48:50.173Z,6.3
2018-01-03T12:49:49.157Z,6.3
2018-01-03T12:50:48.247Z,6.3
2018-01-03T12:51:47.441Z,6.4
2018-01-03T12:52:46.532Z,6.3
2018-01-03T12:53:45.308Z,6.3
2018-01-03T12:54:44.397Z,6.3
2018-01-03T12:55:43.699Z,6.3
2018-01-03T12:56:42.794Z,6.3
2018-01-03T12:57:41.679Z,6.3
2018-01-03T12:58:40.456Z,6.3
2018-01-03T12:59:40.062Z,6.3
2018-01-03T13:00:39.058Z,6.4
2018-01-03T13:01:38.155Z,6.4
2018-01-03T13:02:37.249Z,6.4
2018-01-03T13:03:36.346Z,6.4
2018-01-03T13:04:35.235Z,6.4
2018-01-03T13:05:34.231Z,6.4
2018-01-03T13:06:33.323Z,6.4
2018-01-03T13:07:32.721Z,6.4
2018-01-03T13:08:31.220Z,6.4
2018-01-03T13:09:01.439Z,6.4
2018-01-03T13:09:31.745Z,6.5
2018-01-03T13:10:01.945Z,6.5
2018-01-03T13:10:32.255Z,6.5
2018-01-03T13:11:02.769Z,6.5
2018-01-03T13:12:27.427Z,6.6
2018-01-03T13:13:26.423Z,6.7
2018-01-03T13:14:25.408Z,6.7
2018-01-03T13:15:24.797Z,6.8
2018-01-03T13:16:23.573Z,6.8
2018-01-03T13:17:22.499Z,6.9
2018-01-03T13:18:21.887Z,7
2018-01-03T13:18:52.584Z,7
2018-01-03T13:20:20.268Z,7
2018-01-03T13:20:50.570Z,7
2018-01-03T13:21:20.765Z,7.1
2018-01-03T13:21:51.185Z,7.1
2018-01-03T13:23:17.565Z,7.2
2018-01-03T13:24:16.661Z,7.2
2018-01-03T13:25:15.459Z,7.2
2018-01-03T13:26:14.451Z,7.3
2018-01-03T13:27:13.440Z,7.3
2018-01-03T13:28:12.429Z,7.3
2018-01-03T13:29:11.737Z,7.3
2018-01-03T13:30:10.623Z,7.3
2018-01-03T13:31:09.404Z,7.3
2018-01-03T13:32:08.998Z,7.3
2018-01-03T13:33:07.883Z,7.3
2018-01-03T13:34:07.089Z,7.4
2018-01-03T13:35:06.176Z,7.4
2018-01-03T13:36:05.484Z,7.3
2018-01-03T13:37:04.231Z,7.3